createdAt,value
2023-02-12T00:10:58.624Z,11.03
2023-02-12T00:22:58.690Z,11.03
2023-02-12T00:34:58.623Z,11.02
2023-02-12T00:46:58.619Z,11.01
2023-02-12T00:58:58.687Z,11.00
2023-02-12T01:10:58.718Z,11.00
2023-02-12T01:22:58.713Z,10.99
2023-02-12T01:34:58.627Z,10.99
2023-02-12T01:46:58.719Z,10.98
2023-02-12T01:59:00.761Z,10.98
2023-02-12T02:10:58.735Z,10.97
2023-02-12T02:22:58.615Z,10.97
2023-02-12T02:34:58.789Z,10.96
2023-02-12T02:46:58.692Z,10.95
2023-02-12T02:58:58.731Z,10.95
2023-02-12T03:10:58.717Z,10.94
2023-02-12T03:22:58.617Z,10.94
2023-02-12T03:34:58.633Z,10.93
2023-02-12T03:46:58.616Z,10.93
2023-02-12T03:58:58.713Z,10.93
2023-02-12T04:10:58.622Z,10.92
2023-02-12T04:22:58.668Z,10.92
2023-02-12T04:34:58.607Z,10.91
2023-02-12T04:46:58.740Z,10.91
2023-02-12T04:58:58.709Z,10.91
2023-02-12T05:10:58.732Z,10.90
2023-02-12T05:22:58.623Z,10.90
2023-02-12T05:34:58.618Z,10.89
2023-02-12T05:46:58.631Z,10.88
2023-02-12T05:58:58.620Z,10.89
2023-02-12T06:10:58.827Z,10.88
2023-02-12T06:22:58.711Z,10.88
2023-02-12T06:34:58.623Z,10.87
2023-02-12T06:46:58.771Z,10.87
2023-02-12T06:58:58.698Z,10.87
2023-02-12T07:10:58.699Z,10.87
2023-02-12T07:22:58.689Z,10.87
2023-02-12T07:34:58.754Z,10.85
2023-02-12T07:46:58.646Z,10.87
2023-02-12T07:58:58.730Z,10.88
2023-02-12T08:10:58.617Z,10.88
2023-02-12T08:22:58.630Z,10.90
2023-02-12T08:34:58.624Z,10.90
2023-02-12T08:46:58.672Z,10.91
2023-02-12T08:58:58.692Z,10.94
2023-02-12T09:10:58.728Z,10.94
2023-02-12T09:22:58.615Z,10.95
2023-02-12T09:34:58.623Z,11.00
2023-02-12T09:46:58.706Z,11.01
2023-02-12T09:58:58.734Z,11.00
2023-02-12T10:10:58.756Z,10.99
2023-02-12T10:22:58.743Z,11.00
2023-02-12T10:34:58.622Z,11.01
2023-02-12T10:46:58.737Z,11.03
2023-02-12T10:58:58.610Z,11.05
2023-02-12T11:10:58.719Z,11.06
2023-02-12T11:22:58.648Z,11.07
2023-02-12T11:34:58.729Z,11.07
2023-02-12T11:46:58.834Z,11.11
2023-02-12T11:58:58.624Z,11.08
2023-02-12T12:10:58.702Z,11.08
2023-02-12T12:22:58.763Z,11.08
2023-02-12T12:34:58.631Z,11.08
2023-02-12T12:46:58.732Z,11.08
2023-02-12T12:58:58.701Z,11.10
2023-02-12T13:10:58.668Z,11.12
2023-02-12T13:22:58.643Z,11.11
2023-02-12T13:34:58.623Z,11.11
2023-02-12T13:46:58.708Z,11.12
2023-02-12T13:58:58.624Z,11.12
2023-02-12T14:10:58.811Z,11.11
2023-02-12T14:22:58.626Z,11.11
2023-02-12T14:34:58.619Z,11.10
2023-02-12T14:46:58.758Z,11.10
2023-02-12T14:58:58.713Z,11.08
2023-02-12T15:10:58.728Z,11.09
2023-02-12T15:22:58.620Z,11.07
2023-02-12T15:34:58.732Z,11.07
2023-02-12T15:46:58.618Z,11.05
2023-02-12T15:58:59.063Z,11.03
2023-02-12T16:10:58.712Z,11.03
2023-02-12T16:22:58.613Z,11.03
2023-02-12T16:34:58.619Z,11.01
2023-02-12T16:46:58.728Z,11.00
2023-02-12T16:58:58.709Z,11.00
2023-02-12T17:10:58.618Z,10.99
2023-02-12T17:22:58.741Z,10.97
2023-02-12T17:34:58.711Z,10.98
2023-02-12T17:46:58.620Z,10.97
2023-02-12T17:58:58.742Z,10.97
2023-02-12T18:10:58.709Z,10.95
2023-02-12T18:23:00.493Z,10.94
2023-02-12T18:34:58.710Z,10.94
2023-02-12T18:46:58.613Z,10.94
2023-02-12T18:58:58.698Z,10.94
2023-02-12T19:10:58.973Z,10.93
2023-02-12T19:22:58.689Z,10.93
2023-02-12T19:34:58.611Z,10.91
2023-02-12T19:46:58.620Z,10.92
2023-02-12T19:58:58.732Z,10.91
2023-02-12T20:10:58.788Z,10.91
2023-02-12T20:22:58.735Z,10.90
2023-02-12T20:34:58.641Z,10.90
2023-02-12T20:46:58.625Z,10.88
2023-02-12T20:58:58.650Z,10.89
2023-02-12T21:10:58.732Z,10.88
2023-02-12T21:22:58.712Z,10.88
2023-02-12T21:34:58.619Z,10.87
2023-02-12T21:46:58.669Z,10.87
2023-02-12T21:58:58.607Z,10.87
2023-02-12T22:10:59.107Z,10.86
2023-02-12T22:22:58.662Z,10.86
2023-02-12T22:34:58.699Z,10.84
2023-02-12T22:46:58.670Z,10.83
2023-02-12T22:58:58.605Z,10.85
2023-02-12T23:10:59.148Z,10.84
2023-02-12T23:22:58.648Z,10.84
2023-02-12T23:34:58.726Z,10.83
2023-02-12T23:46:58.733Z,10.83
2023-02-12T23:58:58.687Z,10.81
